sensor_id;sensor_type;location;lat;lon;timestamp;temperature;humidity
57218;DHT22;43078;52.972;6.482;2023-03-12T00:02:00;1.80;99.90
57218;DHT22;43078;52.972;6.482;2023-03-12T00:04:26;1.70;99.90
57218;DHT22;43078;52.972;6.482;2023-03-12T00:06:52;1.70;99.90
57218;DHT22;43078;52.972;6.482;2023-03-12T00:09:18;1.70;99.90
57218;DHT22;43078;52.972;6.482;2023-03-12T00:11:44;1.70;99.90
57218;DHT22;43078;52.972;6.482;2023-03-12T00:14:09;1.70;99.90
57218;DHT22;43078;52.972;6.482;2023-03-12T00:16:35;1.70;99.90
57218;DHT22;43078;52.972;6.482;2023-03-12T00:19:00;1.70;99.90
57218;DHT22;43078;52.972;6.482;2023-03-12T00:21:26;1.70;99.90
57218;DHT22;43078;52.972;6.482;2023-03-12T00:23:52;1.60;99.90
57218;DHT22;43078;52.972;6.482;2023-03-12T00:26:19;1.60;99.90
57218;DHT22;43078;52.972;6.482;2023-03-12T00:28:47;1.60;99.90
57218;DHT22;43078;52.972;6.482;2023-03-12T00:31:27;1.60;99.90
57218;DHT22;43078;52.972;6.482;2023-03-12T00:33:54;1.60;99.90
57218;DHT22;43078;52.972;6.482;2023-03-12T00:36:23;1.60;99.90
57218;DHT22;43078;52.972;6.482;2023-03-12T00:38:51;1.60;99.90
57218;DHT22;43078;52.972;6.482;2023-03-12T00:41:17;1.50;99.90
57218;DHT22;43078;52.972;6.482;2023-03-12T00:43:48;1.50;99.90
57218;DHT22;43078;52.972;6.482;2023-03-12T00:46:14;1.50;99.90
57218;DHT22;43078;52.972;6.482;2023-03-12T00:48:40;1.50;99.90
57218;DHT22;43078;52.972;6.482;2023-03-12T00:51:06;1.50;99.90
57218;DHT22;43078;52.972;6.482;2023-03-12T00:53:32;1.50;99.90
57218;DHT22;43078;52.972;6.482;2023-03-12T00:55:57;1.40;99.90
57218;DHT22;43078;52.972;6.482;2023-03-12T00:58:23;1.50;99.90
57218;DHT22;43078;52.972;6.482;2023-03-12T01:00:48;1.50;99.90
57218;DHT22;43078;52.972;6.482;2023-03-12T01:03:15;1.40;99.90
57218;DHT22;43078;52.972;6.482;2023-03-12T01:05:40;1.40;99.90
57218;DHT22;43078;52.972;6.482;2023-03-12T01:08:07;1.40;99.90
57218;DHT22;43078;52.972;6.482;2023-03-12T01:10:33;1.40;99.90
57218;DHT22;43078;52.972;6.482;2023-03-12T01:12:59;1.40;99.90
57218;DHT22;43078;52.972;6.482;2023-03-12T01:15:26;1.40;99.90
57218;DHT22;43078;52.972;6.482;2023-03-12T01:17:51;1.30;99.90
57218;DHT22;43078;52.972;6.482;2023-03-12T01:20:17;1.30;99.90
57218;DHT22;43078;52.972;6.482;2023-03-12T01:22:43;1.30;99.90
57218;DHT22;43078;52.972;6.482;2023-03-12T01:25:09;1.30;99.90
57218;DHT22;43078;52.972;6.482;2023-03-12T01:27:35;1.30;99.90
57218;DHT22;43078;52.972;6.482;2023-03-12T01:30:01;1.30;99.90
57218;DHT22;43078;52.972;6.482;2023-03-12T01:32:27;1.20;99.90
57218;DHT22;43078;52.972;6.482;2023-03-12T01:34:53;1.20;99.90
57218;DHT22;43078;52.972;6.482;2023-03-12T01:37:18;1.20;99.90
57218;DHT22;43078;52.972;6.482;2023-03-12T01:39:44;1.20;99.90
57218;DHT22;43078;52.972;6.482;2023-03-12T01:42:09;1.20;99.90
57218;DHT22;43078;52.972;6.482;2023-03-12T01:44:55;1.10;99.90
57218;DHT22;43078;52.972;6.482;2023-03-12T01:47:21;1.20;99.90
57218;DHT22;43078;52.972;6.482;2023-03-12T01:49:49;1.10;99.90
57218;DHT22;43078;52.972;6.482;2023-03-12T01:52:19;1.10;99.90
57218;DHT22;43078;52.972;6.482;2023-03-12T01:57:27;1.10;99.90
57218;DHT22;43078;52.972;6.482;2023-03-12T02:00:06;1.10;99.90
57218;DHT22;43078;52.972;6.482;2023-03-12T02:02:34;1.10;99.90
57218;DHT22;43078;52.972;6.482;2023-03-12T02:07:33;1.10;99.90
57218;DHT22;43078;52.972;6.482;2023-03-12T02:09:59;1.10;99.90
57218;DHT22;43078;52.972;6.482;2023-03-12T02:12:24;1.10;99.90
57218;DHT22;43078;52.972;6.482;2023-03-12T02:14:50;1.10;99.90
57218;DHT22;43078;52.972;6.482;2023-03-12T02:17:16;1.10;99.90
57218;DHT22;43078;52.972;6.482;2023-03-12T02:22:35;1.10;99.90
57218;DHT22;43078;52.972;6.482;2023-03-12T02:25:37;1.00;99.90
57218;DHT22;43078;52.972;6.482;2023-03-12T02:28:06;1.00;99.90
57218;DHT22;43078;52.972;6.482;2023-03-12T02:30:33;1.10;99.90
57218;DHT22;43078;52.972;6.482;2023-03-12T02:33:04;1.10;99.90
57218;DHT22;43078;52.972;6.482;2023-03-12T02:35:30;1.10;99.90
57218;DHT22;43078;52.972;6.482;2023-03-12T02:37:56;1.10;99.90
57218;DHT22;43078;52.972;6.482;2023-03-12T02:42:47;1.10;99.90
57218;DHT22;43078;52.972;6.482;2023-03-12T02:45:12;1.10;99.90
57218;DHT22;43078;52.972;6.482;2023-03-12T02:47:38;1.10;99.90
57218;DHT22;43078;52.972;6.482;2023-03-12T02:50:04;1.10;99.90
57218;DHT22;43078;52.972;6.482;2023-03-12T02:52:30;1.10;99.90
57218;DHT22;43078;52.972;6.482;2023-03-12T02:55:00;1.10;99.90
57218;DHT22;43078;52.972;6.482;2023-03-12T02:57:26;1.20;99.90
57218;DHT22;43078;52.972;6.482;2023-03-12T02:59:51;1.20;99.90
57218;DHT22;43078;52.972;6.482;2023-03-12T03:02:17;1.20;99.90
57218;DHT22;43078;52.972;6.482;2023-03-12T03:04:42;1.20;99.90
57218;DHT22;43078;52.972;6.482;2023-03-12T03:07:08;1.20;99.90
57218;DHT22;43078;52.972;6.482;2023-03-12T03:09:34;1.20;99.90
57218;DHT22;43078;52.972;6.482;2023-03-12T03:11:59;1.20;99.90
57218;DHT22;43078;52.972;6.482;2023-03-12T03:14:25;1.20;99.90
57218;DHT22;43078;52.972;6.482;2023-03-12T03:16:51;1.20;99.90
57218;DHT22;43078;52.972;6.482;2023-03-12T03:19:17;1.20;99.90
57218;DHT22;43078;52.972;6.482;2023-03-12T03:21:42;1.20;99.90
57218;DHT22;43078;52.972;6.482;2023-03-12T03:24:08;1.20;99.90
57218;DHT22;43078;52.972;6.482;2023-03-12T03:26:34;1.20;99.90
57218;DHT22;43078;52.972;6.482;2023-03-12T03:28:59;1.20;99.90
57218;DHT22;43078;52.972;6.482;2023-03-12T03:31:25;1.20;99.90
57218;DHT22;43078;52.972;6.482;2023-03-12T03:33:51;1.20;99.90
57218;DHT22;43078;52.972;6.482;2023-03-12T03:36:17;1.20;99.90
57218;DHT22;43078;52.972;6.482;2023-03-12T03:38:43;1.20;99.90
57218;DHT22;43078;52.972;6.482;2023-03-12T03:41:15;1.20;99.90
57218;DHT22;43078;52.972;6.482;2023-03-12T03:43:41;1.20;99.90
57218;DHT22;43078;52.972;6.482;2023-03-12T03:46:06;1.20;99.90
57218;DHT22;43078;52.972;6.482;2023-03-12T03:48:32;1.20;99.90
57218;DHT22;43078;52.972;6.482;2023-03-12T03:51:02;1.20;99.90
57218;DHT22;43078;52.972;6.482;2023-03-12T03:53:28;1.20;99.90
57218;DHT22;43078;52.972;6.482;2023-03-12T03:55:54;1.20;99.90
57218;DHT22;43078;52.972;6.482;2023-03-12T03:58:19;1.20;99.90
57218;DHT22;43078;52.972;6.482;2023-03-12T04:00:45;1.20;99.90
57218;DHT22;43078;52.972;6.482;2023-03-12T04:03:11;1.20;99.90
57218;DHT22;43078;52.972;6.482;2023-03-12T04:05:38;1.20;99.90
57218;DHT22;43078;52.972;6.482;2023-03-12T04:08:04;1.20;99.90
57218;DHT22;43078;52.972;6.482;2023-03-12T04:10:30;1.20;99.90
57218;DHT22;43078;52.972;6.482;2023-03-12T04:12:56;1.30;99.90
57218;DHT22;43078;52.972;6.482;2023-03-12T04:15:22;1.30;99.90
57218;DHT22;43078;52.972;6.482;2023-03-12T04:17:48;1.30;99.90
57218;DHT22;43078;52.972;6.482;2023-03-12T04:20:14;1.30;99.90
57218;DHT22;43078;52.972;6.482;2023-03-12T04:22:40;1.30;99.90
57218;DHT22;43078;52.972;6.482;2023-03-12T04:25:06;1.30;99.90
57218;DHT22;43078;52.972;6.482;2023-03-12T04:27:32;1.30;99.90
57218;DHT22;43078;52.972;6.482;2023-03-12T04:29:58;1.30;99.90
57218;DHT22;43078;52.972;6.482;2023-03-12T04:32:24;1.30;99.90
57218;DHT22;43078;52.972;6.482;2023-03-12T04:34:49;1.30;99.90
57218;DHT22;43078;52.972;6.482;2023-03-12T04:37:15;1.30;99.90
57218;DHT22;43078;52.972;6.482;2023-03-12T04:39:42;1.30;99.90
57218;DHT22;43078;52.972;6.482;2023-03-12T04:42:09;1.30;99.90
57218;DHT22;43078;52.972;6.482;2023-03-12T04:44:35;1.30;99.90
57218;DHT22;43078;52.972;6.482;2023-03-12T04:47:01;1.30;99.90
57218;DHT22;43078;52.972;6.482;2023-03-12T04:49:27;1.30;99.90
57218;DHT22;43078;52.972;6.482;2023-03-12T04:51:53;1.30;99.90
57218;DHT22;43078;52.972;6.482;2023-03-12T04:54:19;1.40;99.90
57218;DHT22;43078;52.972;6.482;2023-03-12T04:56:46;1.30;99.90
57218;DHT22;43078;52.972;6.482;2023-03-12T04:59:12;1.30;99.90
57218;DHT22;43078;52.972;6.482;2023-03-12T05:01:38;1.30;99.90
57218;DHT22;43078;52.972;6.482;2023-03-12T05:04:04;1.30;99.90
57218;DHT22;43078;52.972;6.482;2023-03-12T05:06:30;1.30;99.90
57218;DHT22;43078;52.972;6.482;2023-03-12T05:08:56;1.30;99.90
57218;DHT22;43078;52.972;6.482;2023-03-12T05:11:22;1.40;99.90
57218;DHT22;43078;52.972;6.482;2023-03-12T05:13:48;1.40;99.90
57218;DHT22;43078;52.972;6.482;2023-03-12T05:16:14;1.40;99.90
57218;DHT22;43078;52.972;6.482;2023-03-12T05:18:41;1.40;99.90
57218;DHT22;43078;52.972;6.482;2023-03-12T05:21:10;1.40;99.90
57218;DHT22;43078;52.972;6.482;2023-03-12T05:23:36;1.40;99.90
57218;DHT22;43078;52.972;6.482;2023-03-12T05:26:04;1.40;99.90
57218;DHT22;43078;52.972;6.482;2023-03-12T05:28:30;1.40;99.90
57218;DHT22;43078;52.972;6.482;2023-03-12T05:30:57;1.40;99.90
57218;DHT22;43078;52.972;6.482;2023-03-12T05:33:24;1.40;99.90
57218;DHT22;43078;52.972;6.482;2023-03-12T05:35:50;1.40;99.90
57218;DHT22;43078;52.972;6.482;2023-03-12T05:38:16;1.40;99.90
57218;DHT22;43078;52.972;6.482;2023-03-12T05:40:41;1.40;99.90
57218;DHT22;43078;52.972;6.482;2023-03-12T05:43:07;1.50;99.90
57218;DHT22;43078;52.972;6.482;2023-03-12T05:45:33;1.50;99.90
57218;DHT22;43078;52.972;6.482;2023-03-12T05:47:58;1.50;99.90
57218;DHT22;43078;52.972;6.482;2023-03-12T05:50:24;1.50;99.90
57218;DHT22;43078;52.972;6.482;2023-03-12T05:52:50;1.50;99.90
57218;DHT22;43078;52.972;6.482;2023-03-12T05:55:16;1.50;99.90
57218;DHT22;43078;52.972;6.482;2023-03-12T05:57:42;1.50;99.90
57218;DHT22;43078;52.972;6.482;2023-03-12T06:00:11;1.50;99.90
57218;DHT22;43078;52.972;6.482;2023-03-12T06:02:37;1.50;99.90
57218;DHT22;43078;52.972;6.482;2023-03-12T06:05:03;1.50;99.90
57218;DHT22;43078;52.972;6.482;2023-03-12T06:07:29;1.50;99.90
57218;DHT22;43078;52.972;6.482;2023-03-12T06:09:55;1.50;99.90
57218;DHT22;43078;52.972;6.482;2023-03-12T06:12:20;1.50;99.90
57218;DHT22;43078;52.972;6.482;2023-03-12T06:14:46;1.50;99.90
57218;DHT22;43078;52.972;6.482;2023-03-12T06:17:12;1.60;99.90
57218;DHT22;43078;52.972;6.482;2023-03-12T06:19:37;1.60;99.90
57218;DHT22;43078;52.972;6.482;2023-03-12T06:22:04;1.60;99.90
57218;DHT22;43078;52.972;6.482;2023-03-12T06:24:30;1.60;99.90
57218;DHT22;43078;52.972;6.482;2023-03-12T06:26:55;1.60;99.90
57218;DHT22;43078;52.972;6.482;2023-03-12T06:29:21;1.60;99.90
57218;DHT22;43078;52.972;6.482;2023-03-12T06:31:47;1.60;99.90
57218;DHT22;43078;52.972;6.482;2023-03-12T06:34:13;1.60;99.90
57218;DHT22;43078;52.972;6.482;2023-03-12T06:36:38;1.60;99.90
57218;DHT22;43078;52.972;6.482;2023-03-12T06:39:05;1.60;99.90
57218;DHT22;43078;52.972;6.482;2023-03-12T06:41:31;1.60;99.90
57218;DHT22;43078;52.972;6.482;2023-03-12T06:43:56;1.70;99.90
57218;DHT22;43078;52.972;6.482;2023-03-12T06:46:23;1.70;99.90
57218;DHT22;43078;52.972;6.482;2023-03-12T06:48:50;1.70;99.90
57218;DHT22;43078;52.972;6.482;2023-03-12T06:51:16;1.70;99.90
57218;DHT22;43078;52.972;6.482;2023-03-12T06:53:43;1.70;99.90
57218;DHT22;43078;52.972;6.482;2023-03-12T06:56:10;1.70;99.90
57218;DHT22;43078;52.972;6.482;2023-03-12T06:58:36;1.70;99.90
57218;DHT22;43078;52.972;6.482;2023-03-12T07:01:02;1.70;99.90
57218;DHT22;43078;52.972;6.482;2023-03-12T07:03:28;1.80;99.90
57218;DHT22;43078;52.972;6.482;2023-03-12T07:05:55;1.80;99.90
57218;DHT22;43078;52.972;6.482;2023-03-12T07:08:21;1.80;99.90
57218;DHT22;43078;52.972;6.482;2023-03-12T07:10:47;1.80;99.90
57218;DHT22;43078;52.972;6.482;2023-03-12T07:13:13;1.80;99.90
57218;DHT22;43078;52.972;6.482;2023-03-12T07:15:39;1.80;99.90
57218;DHT22;43078;52.972;6.482;2023-03-12T07:18:10;1.80;99.90
57218;DHT22;43078;52.972;6.482;2023-03-12T07:20:37;1.80;99.90
57218;DHT22;43078;52.972;6.482;2023-03-12T07:23:04;1.80;99.90
57218;DHT22;43078;52.972;6.482;2023-03-12T07:25:30;1.80;99.90
57218;DHT22;43078;52.972;6.482;2023-03-12T07:27:55;1.90;99.90
57218;DHT22;43078;52.972;6.482;2023-03-12T07:30:21;1.90;99.90
57218;DHT22;43078;52.972;6.482;2023-03-12T07:32:47;1.80;99.90
57218;DHT22;43078;52.972;6.482;2023-03-12T07:35:13;1.90;99.90
57218;DHT22;43078;52.972;6.482;2023-03-12T07:37:38;1.90;99.90
57218;DHT22;43078;52.972;6.482;2023-03-12T07:40:05;1.90;99.90
57218;DHT22;43078;52.972;6.482;2023-03-12T07:42:32;1.80;99.90
57218;DHT22;43078;52.972;6.482;2023-03-12T07:44:58;1.80;99.90
57218;DHT22;43078;52.972;6.482;2023-03-12T07:47:24;1.80;99.90
57218;DHT22;43078;52.972;6.482;2023-03-12T07:49:50;1.80;99.90
57218;DHT22;43078;52.972;6.482;2023-03-12T07:52:16;1.80;99.90
57218;DHT22;43078;52.972;6.482;2023-03-12T07:54:42;1.80;99.90
57218;DHT22;43078;52.972;6.482;2023-03-12T07:57:08;1.80;99.90
57218;DHT22;43078;52.972;6.482;2023-03-12T07:59:34;1.80;99.90
57218;DHT22;43078;52.972;6.482;2023-03-12T08:01:59;1.80;99.90
57218;DHT22;43078;52.972;6.482;2023-03-12T08:04:25;1.90;99.90
57218;DHT22;43078;52.972;6.482;2023-03-12T08:06:50;1.90;99.90
57218;DHT22;43078;52.972;6.482;2023-03-12T08:09:16;1.90;99.90
57218;DHT22;43078;52.972;6.482;2023-03-12T08:11:42;1.90;99.90
57218;DHT22;43078;52.972;6.482;2023-03-12T08:14:07;1.90;99.90
57218;DHT22;43078;52.972;6.482;2023-03-12T08:16:33;1.90;99.90
57218;DHT22;43078;52.972;6.482;2023-03-12T08:18:59;1.90;99.90
57218;DHT22;43078;52.972;6.482;2023-03-12T08:21:25;1.90;99.90
57218;DHT22;43078;52.972;6.482;2023-03-12T08:23:50;1.90;99.90
57218;DHT22;43078;52.972;6.482;2023-03-12T08:26:16;1.90;99.90
57218;DHT22;43078;52.972;6.482;2023-03-12T08:28:41;1.90;99.90
57218;DHT22;43078;52.972;6.482;2023-03-12T08:31:07;1.90;99.90
57218;DHT22;43078;52.972;6.482;2023-03-12T08:33:34;1.90;99.90
57218;DHT22;43078;52.972;6.482;2023-03-12T08:36:00;1.90;99.90
57218;DHT22;43078;52.972;6.482;2023-03-12T08:38:25;1.90;99.90
57218;DHT22;43078;52.972;6.482;2023-03-12T08:40:59;1.90;99.90
57218;DHT22;43078;52.972;6.482;2023-03-12T08:43:26;1.90;99.90
57218;DHT22;43078;52.972;6.482;2023-03-12T08:45:57;1.90;99.90
57218;DHT22;43078;52.972;6.482;2023-03-12T08:48:22;1.90;99.90
57218;DHT22;43078;52.972;6.482;2023-03-12T08:50:48;1.90;99.90
57218;DHT22;43078;52.972;6.482;2023-03-12T08:53:15;1.90;99.90
57218;DHT22;43078;52.972;6.482;2023-03-12T08:55:40;1.90;99.90
57218;DHT22;43078;52.972;6.482;2023-03-12T08:58:06;1.90;99.90
57218;DHT22;43078;52.972;6.482;2023-03-12T09:00:32;1.90;99.90
57218;DHT22;43078;52.972;6.482;2023-03-12T09:02:57;1.90;99.90
57218;DHT22;43078;52.972;6.482;2023-03-12T09:05:24;2.00;99.90
57218;DHT22;43078;52.972;6.482;2023-03-12T09:07:50;2.00;99.90
57218;DHT22;43078;52.972;6.482;2023-03-12T09:10:16;2.00;99.90
57218;DHT22;43078;52.972;6.482;2023-03-12T09:12:42;2.00;99.90
57218;DHT22;43078;52.972;6.482;2023-03-12T09:15:09;2.00;99.90
57218;DHT22;43078;52.972;6.482;2023-03-12T09:17:37;2.00;99.90
57218;DHT22;43078;52.972;6.482;2023-03-12T09:20:04;2.00;99.90
57218;DHT22;43078;52.972;6.482;2023-03-12T09:22:33;2.00;99.90
57218;DHT22;43078;52.972;6.482;2023-03-12T09:25:02;2.10;99.90
57218;DHT22;43078;52.972;6.482;2023-03-12T09:27:28;2.10;99.90
57218;DHT22;43078;52.972;6.482;2023-03-12T09:29:54;2.10;99.90
57218;DHT22;43078;52.972;6.482;2023-03-12T09:32:19;2.10;99.90
57218;DHT22;43078;52.972;6.482;2023-03-12T09:34:45;2.10;99.90
57218;DHT22;43078;52.972;6.482;2023-03-12T09:37:10;2.20;99.90
57218;DHT22;43078;52.972;6.482;2023-03-12T09:39:36;2.20;99.90
57218;DHT22;43078;52.972;6.482;2023-03-12T09:42:04;2.20;99.90
57218;DHT22;43078;52.972;6.482;2023-03-12T09:44:32;2.20;99.90
57218;DHT22;43078;52.972;6.482;2023-03-12T09:47:14;2.20;99.90
57218;DHT22;43078;52.972;6.482;2023-03-12T09:49:48;2.20;99.90
57218;DHT22;43078;52.972;6.482;2023-03-12T09:52:27;2.20;99.90
57218;DHT22;43078;52.972;6.482;2023-03-12T09:55:02;2.30;99.90
57218;DHT22;43078;52.972;6.482;2023-03-12T09:57:31;2.30;99.90
57218;DHT22;43078;52.972;6.482;2023-03-12T09:59:57;2.30;99.90
57218;DHT22;43078;52.972;6.482;2023-03-12T10:05:52;2.30;99.90
57218;DHT22;43078;52.972;6.482;2023-03-12T10:11:07;2.30;99.90
57218;DHT22;43078;52.972;6.482;2023-03-12T10:13:45;2.40;99.90
57218;DHT22;43078;52.972;6.482;2023-03-12T10:19:20;2.40;99.90
57218;DHT22;43078;52.972;6.482;2023-03-12T10:22:06;2.40;99.90
57218;DHT22;43078;52.972;6.482;2023-03-12T10:27:36;2.40;99.90
57218;DHT22;43078;52.972;6.482;2023-03-12T10:30:10;2.40;99.90
57218;DHT22;43078;52.972;6.482;2023-03-12T10:32:46;2.50;99.90
57218;DHT22;43078;52.972;6.482;2023-03-12T10:35:19;2.50;99.90
57218;DHT22;43078;52.972;6.482;2023-03-12T10:37:55;2.50;99.90
57218;DHT22;43078;52.972;6.482;2023-03-12T10:40:27;2.50;99.90
57218;DHT22;43078;52.972;6.482;2023-03-12T10:42:53;2.50;99.90
57218;DHT22;43078;52.972;6.482;2023-03-12T10:48:09;2.60;99.90
57218;DHT22;43078;52.972;6.482;2023-03-12T10:50:41;2.60;99.90
57218;DHT22;43078;52.972;6.482;2023-03-12T10:55:38;2.60;99.90
57218;DHT22;43078;52.972;6.482;2023-03-12T10:58:04;2.70;99.90
57218;DHT22;43078;52.972;6.482;2023-03-12T11:00:30;2.70;99.90
57218;DHT22;43078;52.972;6.482;2023-03-12T11:03:00;2.80;99.90
57218;DHT22;43078;52.972;6.482;2023-03-12T11:05:33;2.80;99.90
57218;DHT22;43078;52.972;6.482;2023-03-12T11:08:00;2.90;99.90
57218;DHT22;43078;52.972;6.482;2023-03-12T11:10:41;2.90;99.90
57218;DHT22;43078;52.972;6.482;2023-03-12T11:13:23;2.90;99.90
57218;DHT22;43078;52.972;6.482;2023-03-12T11:15:49;3.00;99.90
57218;DHT22;43078;52.972;6.482;2023-03-12T11:18:32;3.00;99.90
57218;DHT22;43078;52.972;6.482;2023-03-12T11:23:37;3.10;99.90
57218;DHT22;43078;52.972;6.482;2023-03-12T11:26:04;3.10;99.90
57218;DHT22;43078;52.972;6.482;2023-03-12T11:28:40;3.10;99.90
57218;DHT22;43078;52.972;6.482;2023-03-12T11:31:18;3.10;99.90
57218;DHT22;43078;52.972;6.482;2023-03-12T11:33:45;3.20;99.90
57218;DHT22;43078;52.972;6.482;2023-03-12T11:39:01;3.30;99.90
57218;DHT22;43078;52.972;6.482;2023-03-12T11:44:25;3.40;99.90
57218;DHT22;43078;52.972;6.482;2023-03-12T11:49:59;3.50;99.90
57218;DHT22;43078;52.972;6.482;2023-03-12T11:55:35;3.70;99.90
57218;DHT22;43078;52.972;6.482;2023-03-12T12:01:14;3.80;99.90
57218;DHT22;43078;52.972;6.482;2023-03-12T12:23:44;4.30;99.90
57218;DHT22;43078;52.972;6.482;2023-03-12T12:29:30;4.50;99.90
57218;DHT22;43078;52.972;6.482;2023-03-12T12:32:00;4.50;99.90
57218;DHT22;43078;52.972;6.482;2023-03-12T12:40:28;4.80;99.90
57218;DHT22;43078;52.972;6.482;2023-03-12T12:45:27;4.90;99.90
57218;DHT22;43078;52.972;6.482;2023-03-12T12:48:06;5.00;99.90
57218;DHT22;43078;52.972;6.482;2023-03-12T12:50:37;5.00;99.90
57218;DHT22;43078;52.972;6.482;2023-03-12T12:53:14;5.10;99.90
57218;DHT22;43078;52.972;6.482;2023-03-12T12:56:08;5.20;99.90
57218;DHT22;43078;52.972;6.482;2023-03-12T13:01:14;5.30;99.90
57218;DHT22;43078;52.972;6.482;2023-03-12T13:03:41;5.40;99.90
57218;DHT22;43078;52.972;6.482;2023-03-12T13:06:07;5.40;99.90
57218;DHT22;43078;52.972;6.482;2023-03-12T13:13:47;5.70;99.90
57218;DHT22;43078;52.972;6.482;2023-03-12T13:19:18;5.80;99.90
57218;DHT22;43078;52.972;6.482;2023-03-12T13:24:45;6.00;99.90
57218;DHT22;43078;52.972;6.482;2023-03-12T13:27:22;6.10;99.90
57218;DHT22;43078;52.972;6.482;2023-03-12T13:29:49;6.10;99.90
57218;DHT22;43078;52.972;6.482;2023-03-12T13:34:59;6.20;99.90
57218;DHT22;43078;52.972;6.482;2023-03-12T13:37:57;6.20;99.90
57218;DHT22;43078;52.972;6.482;2023-03-12T13:45:33;6.30;99.90
57218;DHT22;43078;52.972;6.482;2023-03-12T13:48:17;6.40;99.90
57218;DHT22;43078;52.972;6.482;2023-03-12T13:51:11;6.50;99.90
57218;DHT22;43078;52.972;6.482;2023-03-12T13:53:40;6.50;99.90
57218;DHT22;43078;52.972;6.482;2023-03-12T13:56:10;6.60;99.90
57218;DHT22;43078;52.972;6.482;2023-03-12T14:01:47;6.80;99.90
57218;DHT22;43078;52.972;6.482;2023-03-12T14:04:19;6.90;99.90
57218;DHT22;43078;52.972;6.482;2023-03-12T14:17:31;7.20;99.90
57218;DHT22;43078;52.972;6.482;2023-03-12T14:20:16;7.20;99.90
57218;DHT22;43078;52.972;6.482;2023-03-12T14:22:54;7.20;99.90
57218;DHT22;43078;52.972;6.482;2023-03-12T14:27:54;7.30;99.90
57218;DHT22;43078;52.972;6.482;2023-03-12T14:30:29;7.30;99.90
57218;DHT22;43078;52.972;6.482;2023-03-12T14:32:58;7.40;99.90
57218;DHT22;43078;52.972;6.482;2023-03-12T14:35:37;7.40;99.90
57218;DHT22;43078;52.972;6.482;2023-03-12T14:38:20;7.40;99.90
57218;DHT22;43078;52.972;6.482;2023-03-12T14:43:29;7.40;99.90
57218;DHT22;43078;52.972;6.482;2023-03-12T14:46:00;7.40;99.90
57218;DHT22;43078;52.972;6.482;2023-03-12T14:48:28;7.40;99.90
57218;DHT22;43078;52.972;6.482;2023-03-12T14:50:56;7.40;99.90
57218;DHT22;43078;52.972;6.482;2023-03-12T14:53:28;7.40;99.90
57218;DHT22;43078;52.972;6.482;2023-03-12T14:56:02;7.50;99.90
57218;DHT22;43078;52.972;6.482;2023-03-12T14:58:28;7.50;99.90
57218;DHT22;43078;52.972;6.482;2023-03-12T15:01:00;7.50;99.90
57218;DHT22;43078;52.972;6.482;2023-03-12T15:03:35;7.50;99.90
57218;DHT22;43078;52.972;6.482;2023-03-12T15:06:03;7.50;99.90
57218;DHT22;43078;52.972;6.482;2023-03-12T15:08:29;7.60;99.90
57218;DHT22;43078;52.972;6.482;2023-03-12T15:10:57;7.60;99.90
57218;DHT22;43078;52.972;6.482;2023-03-12T15:13:24;7.60;99.90
57218;DHT22;43078;52.972;6.482;2023-03-12T15:15:52;7.60;99.90
57218;DHT22;43078;52.972;6.482;2023-03-12T15:18:23;7.70;99.90
57218;DHT22;43078;52.972;6.482;2023-03-12T15:20:50;7.60;99.90
57218;DHT22;43078;52.972;6.482;2023-03-12T15:23:20;7.70;99.90
57218;DHT22;43078;52.972;6.482;2023-03-12T15:25:46;7.70;99.90
57218;DHT22;43078;52.972;6.482;2023-03-12T15:30:42;7.70;99.90
57218;DHT22;43078;52.972;6.482;2023-03-12T15:33:21;7.70;99.90
57218;DHT22;43078;52.972;6.482;2023-03-12T15:38:49;7.70;99.90
57218;DHT22;43078;52.972;6.482;2023-03-12T15:41:42;7.70;99.90
57218;DHT22;43078;52.972;6.482;2023-03-12T15:44:28;7.70;99.90
57218;DHT22;43078;52.972;6.482;2023-03-12T15:47:04;7.80;99.90
57218;DHT22;43078;52.972;6.482;2023-03-12T15:49:35;7.80;99.90
57218;DHT22;43078;52.972;6.482;2023-03-12T15:54:43;7.80;99.90
57218;DHT22;43078;52.972;6.482;2023-03-12T15:57:23;7.80;99.90
57218;DHT22;43078;52.972;6.482;2023-03-12T16:02:38;7.80;99.90
57218;DHT22;43078;52.972;6.482;2023-03-12T16:05:04;7.90;99.90
57218;DHT22;43078;52.972;6.482;2023-03-12T16:07:30;7.90;99.90
57218;DHT22;43078;52.972;6.482;2023-03-12T16:09:56;7.90;99.90
57218;DHT22;43078;52.972;6.482;2023-03-12T16:12:22;7.90;99.90
57218;DHT22;43078;52.972;6.482;2023-03-12T16:14:47;7.90;99.90
57218;DHT22;43078;52.972;6.482;2023-03-12T16:17:14;7.90;99.90
57218;DHT22;43078;52.972;6.482;2023-03-12T16:19:42;7.90;99.90
57218;DHT22;43078;52.972;6.482;2023-03-12T16:22:07;7.90;99.90
57218;DHT22;43078;52.972;6.482;2023-03-12T16:24:33;7.90;99.90
57218;DHT22;43078;52.972;6.482;2023-03-12T16:26:59;7.90;99.90
57218;DHT22;43078;52.972;6.482;2023-03-12T16:29:31;7.90;99.90
57218;DHT22;43078;52.972;6.482;2023-03-12T16:31:57;7.90;99.90
57218;DHT22;43078;52.972;6.482;2023-03-12T16:34:23;7.90;99.90
57218;DHT22;43078;52.972;6.482;2023-03-12T16:36:50;7.90;99.90
57218;DHT22;43078;52.972;6.482;2023-03-12T16:39:15;7.90;99.90
57218;DHT22;43078;52.972;6.482;2023-03-12T16:41:41;7.90;99.90
57218;DHT22;43078;52.972;6.482;2023-03-12T16:44:16;7.90;99.90
57218;DHT22;43078;52.972;6.482;2023-03-12T16:46:43;7.90;99.90
57218;DHT22;43078;52.972;6.482;2023-03-12T16:49:13;7.90;99.90
57218;DHT22;43078;52.972;6.482;2023-03-12T16:51:40;7.90;99.90
57218;DHT22;43078;52.972;6.482;2023-03-12T16:54:05;7.90;99.90
57218;DHT22;43078;52.972;6.482;2023-03-12T16:56:33;7.90;99.90
57218;DHT22;43078;52.972;6.482;2023-03-12T16:59:03;7.90;99.90
57218;DHT22;43078;52.972;6.482;2023-03-12T17:01:29;7.90;99.90
57218;DHT22;43078;52.972;6.482;2023-03-12T17:03:55;7.90;99.90
57218;DHT22;43078;52.972;6.482;2023-03-12T17:06:23;7.90;99.90
57218;DHT22;43078;52.972;6.482;2023-03-12T17:08:50;7.80;99.90
57218;DHT22;43078;52.972;6.482;2023-03-12T17:11:19;7.90;99.90
57218;DHT22;43078;52.972;6.482;2023-03-12T17:13:49;7.90;99.90
57218;DHT22;43078;52.972;6.482;2023-03-12T17:16:16;7.90;99.90
57218;DHT22;43078;52.972;6.482;2023-03-12T17:18:41;7.80;99.90
57218;DHT22;43078;52.972;6.482;2023-03-12T17:21:13;7.80;99.90
57218;DHT22;43078;52.972;6.482;2023-03-12T17:23:40;7.80;99.90
57218;DHT22;43078;52.972;6.482;2023-03-12T17:26:05;7.80;99.90
57218;DHT22;43078;52.972;6.482;2023-03-12T17:28:31;7.80;99.90
57218;DHT22;43078;52.972;6.482;2023-03-12T17:30:57;7.80;99.90
57218;DHT22;43078;52.972;6.482;2023-03-12T17:33:23;7.80;99.90
57218;DHT22;43078;52.972;6.482;2023-03-12T17:36:04;7.80;99.90
57218;DHT22;43078;52.972;6.482;2023-03-12T17:38:30;7.80;99.90
57218;DHT22;43078;52.972;6.482;2023-03-12T17:40:57;7.80;99.90
57218;DHT22;43078;52.972;6.482;2023-03-12T17:43:23;7.70;99.90
57218;DHT22;43078;52.972;6.482;2023-03-12T17:45:49;7.80;99.90
57218;DHT22;43078;52.972;6.482;2023-03-12T17:48:15;7.70;99.90
57218;DHT22;43078;52.972;6.482;2023-03-12T17:50:41;7.70;99.90
57218;DHT22;43078;52.972;6.482;2023-03-12T17:53:07;7.70;99.90
57218;DHT22;43078;52.972;6.482;2023-03-12T17:55:34;7.70;99.90
57218;DHT22;43078;52.972;6.482;2023-03-12T17:58:00;7.70;99.90
57218;DHT22;43078;52.972;6.482;2023-03-12T18:00:28;7.70;99.90